Time;durP1;ratioP1;P1;durP2;ratioP2;P2;SDS_P1;SDS_P2;PMS_P1;PMS_P2;Temp;Humidity;BMP_temperature;BMP_pressure;BME280_temperature;BME280_humidity;BME280_pressure;Samples;Min_cycle;Max_cycle;Signal;HPM_P1;HPM_P2
2020/12/19 00:02:17;;;;;;;8.73;6.42;;;;;;;4.03;72.08;97709.13;1757258;81;22319;-54
2020/12/19 00:04:45;;;;;;;7.35;5.67;;;;;;;4.02;72.10;97717.70;1743284;81;21141;-54
2020/12/19 00:07:13;;;;;;;6.92;5.92;;;;;;;4.01;72.27;97713.89;1763771;81;22308;-54
2020/12/19 00:09:41;;;;;;;10.55;7.17;;;;;;;4.08;72.24;97721.86;1740994;81;21111;-54
2020/12/19 00:12:09;;;;;;;14.25;8.45;;;;;;;4.17;72.10;97724.16;1739334;81;21057;-55
2020/12/19 00:14:37;;;;;;;13.68;9.00;;;;;;;4.28;71.80;97716.19;1760177;81;21148;-54
2020/12/19 00:17:05;;;;;;;14.25;9.50;;;;;;;4.32;71.44;97719.50;1759742;80;21140;-54
2020/12/19 00:19:33;;;;;;;14.90;8.68;;;;;;;4.31;71.41;97719.09;1755505;80;21503;-54
2020/12/19 00:22:01;;;;;;;13.00;8.08;;;;;;;4.32;71.44;97719.05;1741727;80;21069;-54
2020/12/19 00:24:29;;;;;;;11.95;8.13;;;;;;;4.40;71.25;97720.14;1723881;83;21090;-54
2020/12/19 00:26:57;;;;;;;9.18;7.15;;;;;;;4.32;71.21;97717.77;1724350;82;22233;-54
2020/12/19 00:29:25;;;;;;;9.20;6.87;;;;;;;4.30;71.46;97722.56;1704263;82;21181;-54
2020/12/19 00:31:52;;;;;;;9.30;6.50;;;;;;;4.36;71.46;97720.67;1718636;82;21092;-54
2020/12/19 00:34:21;;;;;;;10.45;7.12;;;;;;;4.47;71.24;97716.95;1748293;80;21062;-54
2020/12/19 00:36:49;;;;;;;9.28;7.00;;;;;;;4.55;71.01;97715.01;1734123;82;21149;-54
2020/12/19 00:39:16;;;;;;;11.75;7.53;;;;;;;4.60;70.73;97713.14;1753487;80;21378;-54
2020/12/19 00:41:45;;;;;;;12.43;6.75;;;;;;;4.63;70.53;97713.52;1756167;80;21179;-54
2020/12/19 00:44:12;;;;;;;;;;;;;;;4.67;70.43;97711.23;1768763;80;21049;-54
2020/12/19 00:46:40;;;;;;;10.40;6.37;;;;;;;4.69;70.14;97715.46;1753602;80;20233;-54
2020/12/19 00:49:09;;;;;;;10.15;6.55;;;;;;;4.64;70.14;97708.33;1707938;81;21180;-54
2020/12/19 00:51:38;;;;;;;10.03;6.60;;;;;;;4.66;70.12;97712.14;1740764;81;21365;-54
2020/12/19 00:54:05;;;;;;;10.35;6.75;;;;;;;4.62;70.18;97706.22;1735892;81;21140;-55
2020/12/19 00:56:33;;;;;;;9.03;6.33;;;;;;;4.58;70.14;97712.36;1703682;84;21160;-54
2020/12/19 00:59:01;;;;;;;9.55;5.95;;;;;;;4.56;70.38;97713.68;1766249;81;21081;-54
2020/12/19 01:01:29;;;;;;;9.75;6.90;;;;;;;4.61;70.40;97715.67;1765300;80;21081;-55
2020/12/19 01:03:58;;;;;;;9.48;6.45;;;;;;;4.67;70.24;97710.81;1762066;80;22529;-54
2020/12/19 01:06:27;;;;;;;8.20;6.25;;;;;;;4.69;70.10;97710.77;1763247;80;21145;-54
2020/12/19 01:08:58;;;;;;;7.28;5.30;;;;;;;4.67;70.01;97717.25;1717821;82;21159;-54
2020/12/19 01:11:29;;;;;;;5.85;4.78;;;;;;;4.68;69.92;97717.62;1718423;81;21183;-54
2020/12/19 01:13:57;;;;;;;6.12;4.75;;;;;;;4.65;69.88;97712.56;1735405;82;21120;-55
2020/12/19 01:16:27;;;;;;;8.43;5.20;;;;;;;4.53;70.09;97709.91;1719726;82;21192;-54
2020/12/19 01:18:57;;;;;;;5.45;4.95;;;;;;;4.43;70.46;97714.91;1742910;80;21155;-55
2020/12/19 01:21:27;;;;;;;6.30;4.97;;;;;;;4.40;70.75;97719.69;1761771;80;21195;-54
2020/12/19 01:23:55;;;;;;;5.53;4.70;;;;;;;4.48;70.76;97714.80;1735542;80;21228;-54
2020/12/19 01:26:24;;;;;;;6.75;5.25;;;;;;;4.54;70.49;97711.61;1725461;81;21065;-54
2020/12/19 01:28:51;;;;;;;7.00;5.15;;;;;;;4.53;70.31;97710.36;1743435;80;22161;-54
2020/12/19 01:31:21;;;;;;;6.35;4.58;;;;;;;4.50;70.25;97711.28;1728022;81;21085;-55
2020/12/19 01:33:48;;;;;;;5.53;4.65;;;;;;;4.45;70.45;97709.73;1727651;81;21580;-54
2020/12/19 01:36:19;;;;;;;5.78;4.70;;;;;;;4.47;70.52;97706.67;1750275;81;21589;-54
2020/12/19 01:38:46;;;;;;;6.10;5.10;;;;;;;4.43;70.56;97708.49;1760422;81;21138;-54
2020/12/19 01:41:15;;;;;;;6.17;4.87;;;;;;;4.35;70.71;97704.84;1727422;81;21221;-54
2020/12/19 01:43:52;;;;;;;6.72;5.28;;;;;;;4.35;70.82;97704.84;1758427;80;21080;-54
2020/12/19 01:46:29;;;;;;;6.30;4.80;;;;;;;4.36;70.63;97701.84;1762700;81;21061;-54
2020/12/19 01:48:57;;;;;;;5.50;4.70;;;;;;;4.24;70.62;97698.73;1760109;80;21176;-55
2020/12/19 01:51:27;;;;;;;5.05;4.10;;;;;;;4.15;70.95;97709.24;1762837;81;21553;-54
2020/12/19 01:53:56;;;;;;;4.30;3.87;;;;;;;4.16;71.13;97708.38;1738390;80;22245;-54
2020/12/19 01:56:53;;;;;;;5.30;4.28;;;;;;;4.26;71.19;97704.25;1754442;81;21169;-54
2020/12/19 01:59:23;;;;;;;5.12;4.30;;;;;;;4.32;70.99;97706.66;1744646;81;21519;-55
2020/12/19 02:01:54;;;;;;;5.45;4.65;;;;;;;4.29;70.89;97696.01;1753311;80;21097;-55
2020/12/19 02:04:24;;;;;;;6.35;5.58;;;;;;;4.22;71.01;97696.63;1725394;81;21066;-55
2020/12/19 02:06:55;;;;;;;7.22;5.65;;;;;;;4.11;71.18;97696.09;1724204;83;21394;-55
2020/12/19 02:09:26;;;;;;;7.30;5.10;;;;;;;4.01;71.40;97698.06;1717335;82;21519;-55
2020/12/19 02:11:54;;;;;;;5.17;4.50;;;;;;;3.96;71.58;97696.48;1725756;81;21219;-53
2020/12/19 02:14:22;;;;;;;6.07;4.50;;;;;;;3.94;71.76;97695.69;1762740;80;21060;-53
2020/12/19 02:17:00;;;;;;;7.10;4.85;;;;;;;4.02;71.79;97696.33;1756938;80;21548;-54
2020/12/19 02:19:29;;;;;;;7.67;5.75;;;;;;;4.11;71.66;97700.38;1727194;81;22322;-53
2020/12/19 02:21:57;;;;;;;7.40;5.45;;;;;;;4.15;71.32;97695.56;1728554;83;21573;-53
2020/12/19 02:24:25;;;;;;;7.87;5.87;;;;;;;4.10;71.29;97701.27;1754346;81;21136;-54
2020/12/19 02:26:56;;;;;;;7.60;5.55;;;;;;;4.07;71.42;97697.50;1764974;81;21053;-55
2020/12/19 02:29:25;;;;;;;6.45;5.12;;;;;;;4.04;71.47;97698.41;1748046;80;21186;-54
2020/12/19 02:31:56;;;;;;;6.17;5.12;;;;;;;4.02;71.51;97699.73;1726089;81;22351;-54
2020/12/19 02:34:24;;;;;;;6.15;4.62;;;;;;;4.07;71.53;97703.47;1718716;81;21181;-54
2020/12/19 02:36:52;;;;;;;4.92;4.33;;;;;;;4.18;71.43;97705.31;1735011;82;21092;-54
2020/12/19 02:39:21;;;;;;;4.67;4.20;;;;;;;4.27;71.27;97702.92;1738708;81;21081;-54
2020/12/19 02:41:49;;;;;;;4.73;4.23;;;;;;;4.31;70.97;97701.97;1763489;81;21116;-55
2020/12/19 02:44:19;;;;;;;5.40;4.58;;;;;;;4.33;70.81;97700.64;1733972;81;22272;-54
2020/12/19 02:46:48;;;;;;;5.95;5.08;;;;;;;4.32;70.51;97697.66;1742400;81;21120;-55
2020/12/19 02:49:16;;;;;;;6.80;4.92;;;;;;;4.21;70.58;97696.23;1758000;80;21136;-55
2020/12/19 02:51:44;;;;;;;5.83;4.47;;;;;;;4.16;70.73;97704.52;1756109;80;21188;-55
2020/12/19 02:54:11;;;;;;;5.90;4.60;;;;;;;4.12;70.82;97706.75;1741983;80;21486;-55
2020/12/19 02:56:40;;;;;;;5.00;4.45;;;;;;;4.15;70.94;97707.96;1750044;80;21378;-55
2020/12/19 02:59:07;;;;;;;7.12;4.87;;;;;;;4.24;70.87;97700.44;1724439;83;21172;-55
2020/12/19 03:01:35;;;;;;;7.15;4.90;;;;;;;4.36;70.82;97703.13;1742651;81;21153;-55
2020/12/19 03:04:03;;;;;;;4.83;4.15;;;;;;;4.49;70.56;97697.19;1727854;81;21553;-54
2020/12/19 03:06:33;;;;;;;6.95;4.15;;;;;;;4.55;70.14;97695.28;1760257;81;21064;-55
2020/12/19 03:09:03;;;;;;;4.85;3.92;;;;;;;4.55;69.86;97700.88;1734040;81;21458;-55
2020/12/19 03:11:31;;;;;;;4.62;3.98;;;;;;;4.53;69.74;97696.22;1764705;80;21089;-55
2020/12/19 03:13:59;;;;;;;3.98;3.40;;;;;;;4.45;69.76;97696.44;1765622;80;21105;-54
2020/12/19 03:16:26;;;;;;;4.05;3.50;;;;;;;4.44;69.92;97699.91;1739147;82;21140;-55
2020/12/19 03:18:54;;;;;;;4.17;3.37;;;;;;;4.42;69.72;97700.37;1734267;81;21187;-54
2020/12/19 03:21:22;;;;;;;5.28;3.98;;;;;;;4.43;69.88;97700.78;1732250;82;21208;-54
2020/12/19 03:23:49;;;;;;;5.70;4.28;;;;;;;4.49;69.92;97698.47;1737610;81;21497;-55
2020/12/19 03:26:17;;;;;;;5.17;3.95;;;;;;;4.55;69.58;97699.59;1760438;81;21184;-55
2020/12/19 03:28:45;;;;;;;5.87;4.12;;;;;;;4.57;69.36;97691.37;1740512;81;21108;-54
2020/12/19 03:31:13;;;;;;;5.25;4.37;;;;;;;4.60;69.16;97695.16;1742310;80;21090;-55
2020/12/19 03:33:40;;;;;;;4.42;3.92;;;;;;;4.61;69.06;97692.54;1761795;80;22098;-55
2020/12/19 03:36:09;;;;;;;4.45;3.85;;;;;;;4.60;68.86;97699.87;1744324;80;21081;-55
2020/12/19 03:38:37;;;;;;;5.70;4.10;;;;;;;4.57;69.03;97699.09;1737549;82;21131;-55
2020/12/19 03:41:04;;;;;;;6.53;4.55;;;;;;;4.56;69.10;97700.00;1765620;81;21156;-55
2020/12/19 03:43:32;;;;;;;6.90;4.70;;;;;;;4.58;69.25;97695.65;1765687;80;21065;-55
2020/12/19 03:46:00;;;;;;;8.08;5.47;;;;;;;4.64;69.28;97699.75;1753257;80;21125;-55
2020/12/19 03:48:28;;;;;;;6.17;4.45;;;;;;;4.71;69.24;97696.14;1754381;80;21192;-55
2020/12/19 03:50:56;;;;;;;4.65;4.12;;;;;;;4.76;68.96;97691.25;1756669;80;21136;-55
2020/12/19 03:53:23;;;;;;;4.85;3.70;;;;;;;4.83;68.70;97694.47;1763377;80;21068;-55
2020/12/19 03:55:51;;;;;;;5.00;4.30;;;;;;;4.90;68.40;97693.84;1755011;80;21062;-54
2020/12/19 03:58:19;;;;;;;6.90;5.20;;;;;;;4.90;68.22;97695.99;1708568;82;21219;-55
2020/12/19 04:00:47;;;;;;;6.03;4.92;;;;;;;4.94;68.11;97695.00;1682690;84;21156;-55
2020/12/19 04:03:15;;;;;;;6.92;5.17;;;;;;;4.98;68.05;97690.59;1746274;80;21121;-55
2020/12/19 04:05:42;;;;;;;8.50;4.35;;;;;;;5.01;68.00;97693.08;1752797;80;21061;-55
2020/12/19 04:08:11;;;;;;;5.33;4.40;;;;;;;5.04;67.91;97692.99;1724439;81;21110;-55
2020/12/19 04:10:38;;;;;;;5.85;4.08;;;;;;;5.03;67.88;97689.17;1726489;81;21457;-55
2020/12/19 04:13:06;;;;;;;6.10;4.67;;;;;;;5.01;67.90;97688.39;1762736;81;21132;-55
2020/12/19 04:15:34;;;;;;;6.60;4.40;;;;;;;4.96;67.85;97686.78;1706568;84;21200;-54
2020/12/19 04:18:02;;;;;;;5.40;4.10;;;;;;;4.90;67.94;97688.28;1737893;80;21047;-54
2020/12/19 04:20:30;;;;;;;5.00;4.50;;;;;;;4.89;68.04;97682.73;1740243;81;21061;-54
2020/12/19 04:22:57;;;;;;;5.35;4.35;;;;;;;4.90;68.17;97690.84;1748569;80;21216;-55
2020/12/19 04:25:25;;;;;;;7.75;4.47;;;;;;;4.84;68.19;97685.88;1713343;81;21137;-54
2020/12/19 04:27:53;;;;;;;5.10;3.77;;;;;;;4.78;68.16;97683.03;1737455;82;21108;-54
2020/12/19 04:30:21;;;;;;;5.00;4.12;;;;;;;4.64;68.24;97683.91;1755235;80;21061;-54
2020/12/19 04:32:49;;;;;;;4.70;4.28;;;;;;;4.52;68.57;97685.11;1733090;81;21089;-54
2020/12/19 04:35:18;;;;;;;6.08;4.60;;;;;;;4.41;68.78;97689.26;1754087;81;21215;-54
2020/12/19 04:37:45;;;;;;;7.00;4.87;;;;;;;4.35;69.06;97686.02;1749324;81;21131;-54
2020/12/19 04:40:14;;;;;;;4.20;3.80;;;;;;;4.23;69.29;97679.05;1756653;81;21092;-54
2020/12/19 04:42:42;;;;;;;4.58;3.83;;;;;;;4.09;69.60;97681.14;1762896;81;21140;-54
2020/12/19 04:45:10;;;;;;;4.50;3.87;;;;;;;3.95;70.13;97674.28;1738300;81;21191;-54
2020/12/19 04:47:38;;;;;;;4.22;3.67;;;;;;;3.86;70.51;97674.92;1763578;81;21427;-55
2020/12/19 04:50:06;;;;;;;4.72;3.77;;;;;;;3.84;70.81;97670.70;1759522;80;21143;-54
2020/12/19 04:52:34;;;;;;;5.00;3.87;;;;;;;3.89;70.80;97674.44;1721890;81;21187;-54
2020/12/19 04:55:02;;;;;;;5.50;3.95;;;;;;;3.88;70.52;97664.58;1754909;80;21490;-54
2020/12/19 04:57:29;;;;;;;5.10;3.60;;;;;;;3.83;70.51;97664.73;1731756;82;21097;-55
2020/12/19 04:59:57;;;;;;;3.75;3.40;;;;;;;3.81;70.42;97659.22;1733523;81;23554;-55
2020/12/19 05:02:24;;;;;;;3.52;2.72;;;;;;;3.74;70.24;97664.13;1754289;81;21608;-54
2020/12/19 05:04:53;;;;;;;3.90;3.02;;;;;;;3.65;70.23;97659.63;1758560;80;21092;-54
2020/12/19 05:07:22;;;;;;;2.83;2.40;;;;;;;3.60;70.37;97659.33;1750863;80;21086;-55
2020/12/19 05:09:50;;;;;;;3.87;2.92;;;;;;;3.58;70.46;97658.53;1762465;81;21057;-54
2020/12/19 05:12:18;;;;;;;3.12;2.75;;;;;;;3.56;70.24;97661.59;1759038;81;21438;-54
2020/12/19 05:14:46;;;;;;;3.05;2.65;;;;;;;3.48;70.14;97662.60;1736073;80;21145;-54
2020/12/19 05:17:14;;;;;;;3.60;2.87;;;;;;;3.38;70.20;97661.15;1723521;81;21061;-54
2020/12/19 05:19:41;;;;;;;3.37;2.90;;;;;;;3.30;70.38;97668.19;1742882;81;21069;-55
2020/12/19 05:22:09;;;;;;;4.30;3.52;;;;;;;3.24;70.56;97672.17;1756896;80;21049;-55
2020/12/19 05:24:37;;;;;;;4.87;3.50;;;;;;;3.16;70.78;97674.08;1685001;81;21407;-53
2020/12/19 05:27:05;;;;;;;3.97;3.13;;;;;;;3.08;70.91;97673.83;1687061;82;21138;-54
2020/12/19 05:29:36;;;;;;;5.05;3.92;;;;;;;3.04;71.20;97677.36;1692965;82;21153;-54
2020/12/19 05:32:04;;;;;;;9.08;5.03;;;;;;;3.06;71.43;97679.45;1727597;81;21167;-55
2020/12/19 05:34:31;;;;;;;9.08;5.78;;;;;;;3.07;71.57;97676.43;1734324;81;21200;-56
2020/12/19 05:37:01;;;;;;;8.98;5.12;;;;;;;3.10;71.65;97682.77;1742818;80;21160;-55
2020/12/19 05:39:29;;;;;;;7.28;5.22;;;;;;;3.12;71.64;97680.59;1723525;81;21608;-56
2020/12/19 05:41:56;;;;;;;6.95;4.62;;;;;;;3.15;71.56;97685.23;1731122;81;21116;-55
2020/12/19 05:44:24;;;;;;;6.42;4.60;;;;;;;3.09;71.59;97680.66;1725667;83;21175;-55
2020/12/19 05:46:53;;;;;;;8.38;5.83;;;;;;;3.02;71.88;97678.26;1718523;81;21072;-56
2020/12/19 05:49:21;;;;;;;11.35;7.12;;;;;;;2.97;72.04;97671.95;1727893;81;21442;-55
2020/12/19 05:51:50;;;;;;;8.88;6.22;;;;;;;2.89;72.32;97679.80;1762149;80;21077;-56
2020/12/19 05:54:18;;;;;;;9.68;6.62;;;;;;;2.81;72.55;97684.26;1767412;79;21141;-55
2020/12/19 05:56:50;;;;;;;9.95;7.40;;;;;;;2.73;72.71;97677.17;1733004;81;21592;-55
2020/12/19 05:59:19;;;;;;;9.40;7.00;;;;;;;2.64;72.90;97669.70;1731012;81;21174;-55
2020/12/19 06:01:49;;;;;;;9.38;6.92;;;;;;;2.58;73.02;97672.81;1727886;83;21597;-54
2020/12/19 06:04:17;;;;;;;9.18;6.78;;;;;;;2.47;73.14;97672.19;1729751;83;21156;-54
2020/12/19 06:06:48;;;;;;;11.90;7.97;;;;;;;2.37;73.42;97674.09;1729878;83;21124;-54
2020/12/19 06:09:17;;;;;;;11.43;7.65;;;;;;;2.30;73.65;97672.54;1727463;83;21157;-56
2020/12/19 06:11:52;;;;;;;9.47;6.73;;;;;;;2.22;73.81;97680.81;1756401;81;21537;-56
2020/12/19 06:14:22;;;;;;;8.13;5.75;;;;;;;2.18;73.84;97681.73;1730715;82;21395;-56
2020/12/19 06:16:54;;;;;;;7.10;5.30;;;;;;;2.15;73.72;97683.06;1752247;80;21078;-56
2020/12/19 06:19:23;;;;;;;8.28;5.37;;;;;;;2.09;73.65;97679.34;1722301;81;21056;-55
2020/12/19 06:21:55;;;;;;;7.28;5.22;;;;;;;2.06;73.65;97676.41;1754260;81;21081;-55
2020/12/19 06:24:47;;;;;;;6.70;4.70;;;;;;;2.08;73.41;97671.27;1741880;81;21061;-55
2020/12/19 06:27:27;;;;;;;8.08;4.47;;;;;;;2.04;73.32;97669.20;1752018;81;21562;-54
2020/12/19 06:29:54;;;;;;;7.92;5.12;;;;;;;2.01;73.39;97670.09;1760525;81;21211;-54
2020/12/19 06:32:24;;;;;;;7.17;4.50;;;;;;;2.01;73.41;97679.06;1753356;81;21064;-55
2020/12/19 06:35:10;;;;;;;6.72;4.47;;;;;;;2.03;73.20;97675.19;1745390;81;21092;-55
2020/12/19 06:37:45;;;;;;;6.08;4.17;;;;;;;1.98;72.89;97666.76;1728898;82;21121;-55
2020/12/19 06:40:18;;;;;;;5.97;4.40;;;;;;;1.95;72.58;97670.20;1762891;81;22305;-55
2020/12/19 06:42:49;;;;;;;8.08;3.58;;;;;;;2.01;72.33;97675.66;1731315;81;21196;-55
2020/12/19 06:45:28;;;;;;;4.42;3.62;;;;;;;2.24;71.99;97679.06;1754969;81;21132;-55
2020/12/19 06:47:58;;;;;;;4.90;3.95;;;;;;;2.61;71.33;97678.28;1730179;81;21293;-54
2020/12/19 06:50:30;;;;;;;5.67;4.05;;;;;;;3.21;70.07;97683.37;1731721;82;21603;-56
2020/12/19 06:52:59;;;;;;;5.92;4.30;;;;;;;4.03;68.83;97685.19;1749839;81;21342;-55
2020/12/19 06:55:29;;;;;;;12.73;9.45;;;;;;;5.10;65.93;97690.23;1758824;80;21160;-54
2020/12/19 06:57:58;;;;;;;12.10;9.35;;;;;;;6.04;63.07;97694.92;1758590;81;21109;-54
2020/12/19 07:00:31;;;;;;;9.78;8.15;;;;;;;6.83;60.99;97693.38;1739388;81;21153;-55
2020/12/19 07:03:01;;;;;;;8.48;6.72;;;;;;;7.77;59.06;97692.70;1738139;81;21149;-55
2020/12/19 07:05:33;;;;;;;7.33;6.47;;;;;;;8.80;55.77;97689.09;1727250;83;22281;-55
2020/12/19 07:08:23;;;;;;;7.65;6.62;;;;;;;9.46;53.93;97695.97;1717058;83;21518;-55
2020/12/19 07:10:52;;;;;;;6.90;5.92;;;;;;;10.11;51.65;97694.45;1727195;82;21093;-55
2020/12/19 07:13:19;;;;;;;8.30;7.08;;;;;;;10.71;49.89;97689.65;1713316;82;21093;-55
2020/12/19 07:15:52;;;;;;;11.15;8.50;;;;;;;11.19;48.65;97688.75;1763758;81;21141;-54
2020/12/19 07:18:33;;;;;;;7.95;6.85;;;;;;;11.76;47.54;97691.22;1763748;81;21379;-54
2020/12/19 07:21:06;;;;;;;8.23;6.67;;;;;;;12.43;45.31;97695.97;1758935;81;21132;-55
2020/12/19 07:23:35;;;;;;;7.78;5.87;;;;;;;12.88;44.55;97695.41;1734859;81;21070;-55
2020/12/19 07:26:04;;;;;;;6.92;6.22;;;;;;;13.37;43.48;97700.16;1758917;81;21090;-55
2020/12/19 07:28:33;;;;;;;7.53;6.72;;;;;;;13.88;42.39;97703.82;1758778;81;26534;-55
2020/12/19 07:31:01;;;;;;;9.30;7.83;;;;;;;14.41;41.38;97700.69;1741089;82;22357;-56
2020/12/19 07:33:29;;;;;;;8.48;7.33;;;;;;;15.06;40.17;97699.66;1730796;81;21133;-55
2020/12/19 07:35:57;;;;;;;11.67;8.53;;;;;;;15.85;38.87;97697.92;1734165;82;21117;-55
2020/12/19 07:38:24;;;;;;;23.50;14.87;;;;;;;16.37;37.45;97695.30;1733926;82;21660;-55
2020/12/19 07:40:55;;;;;;;11.73;8.58;;;;;;;16.88;36.63;97697.14;1698048;84;22002;-55
2020/12/19 07:43:23;;;;;;;10.13;7.80;;;;;;;17.46;35.18;97696.40;1763026;81;21466;-55
2020/12/19 07:45:58;;;;;;;9.70;8.40;;;;;;;17.84;33.74;97701.64;1750860;81;21493;-55
2020/12/19 07:48:26;;;;;;;8.98;8.08;;;;;;;17.96;33.50;97709.01;1765774;81;21241;-54
2020/12/19 07:50:53;;;;;;;10.82;8.58;;;;;;;17.97;33.35;97708.52;1739284;82;21465;-55
2020/12/19 07:53:21;;;;;;;9.05;7.30;;;;;;;17.97;33.55;97711.14;1760201;81;21061;-55
2020/12/19 07:55:50;;;;;;;7.35;6.65;;;;;;;18.06;33.05;97710.39;1760192;81;22146;-54
2020/12/19 07:58:20;;;;;;;7.78;6.97;;;;;;;17.91;32.73;97707.25;1765198;80;21557;-55
2020/12/19 08:00:48;;;;;;;12.15;8.75;;;;;;;17.66;33.31;97709.69;1765898;81;21097;-55
2020/12/19 08:03:16;;;;;;;15.17;12.00;;;;;;;17.74;33.29;97708.58;1739437;82;21597;-56
2020/12/19 08:05:44;;;;;;;20.33;14.23;;;;;;;17.74;33.29;97708.58;1739384;82;21444;-55
2020/12/19 08:08:12;;;;;;;19.95;13.75;;;;;;;18.19;32.74;97704.46;1739323;82;21333;-55
2020/12/19 08:10:41;;;;;;;;;;;;;;;18.72;32.00;97710.05;1741567;82;21514;-56
2020/12/19 08:13:10;;;;;;;19.98;13.48;;;;;;;19.05;31.51;97708.12;1739122;82;20226;-55
2020/12/19 08:15:38;;;;;;;17.50;12.73;;;;;;;19.14;31.23;97702.52;1733160;81;21569;-55
2020/12/19 08:18:07;;;;;;;16.95;13.30;;;;;;;19.00;31.11;97702.92;1760077;81;21576;-55
2020/12/19 08:20:36;;;;;;;14.70;12.35;;;;;;;18.62;31.52;97716.21;1760168;81;21521;-55
2020/12/19 08:23:07;;;;;;;15.83;12.28;;;;;;;18.00;32.16;97719.59;1760207;81;21930;-55
2020/12/19 08:25:37;;;;;;;12.03;10.50;;;;;;;17.33;33.08;97719.33;1760160;81;21179;-55
2020/12/19 08:28:05;;;;;;;12.43;9.60;;;;;;;16.65;33.98;97710.21;1760133;81;21552;-55
2020/12/19 08:30:33;;;;;;;10.63;8.70;;;;;;;15.96;34.90;97717.59;1735511;81;21093;-56
2020/12/19 08:33:10;;;;;;;11.00;8.88;;;;;;;15.23;35.79;97709.38;1735451;82;21371;-54
2020/12/19 08:35:45;;;;;;;15.25;8.93;;;;;;;14.57;36.71;97715.30;1709561;84;21170;-54
2020/12/19 08:41:02;;;;;;;14.73;10.20;;;;;;;13.66;38.29;97715.66;1873646;75;22140;-55
2020/12/19 08:43:35;;;;;;;9.10;7.20;;;;;;;13.60;38.90;97714.75;1840868;78;21464;-55
2020/12/19 08:46:10;;;;;;;6.50;5.05;;;;;;;14.12;38.33;97713.10;1841533;78;21322;-55
2020/12/19 08:48:37;;;;;;;8.23;5.87;;;;;;;14.87;37.10;97711.07;1797634;79;21091;-55
2020/12/19 08:51:10;;;;;;;10.15;6.30;;;;;;;15.64;35.77;97713.39;1808584;78;21090;-55
2020/12/19 08:53:37;;;;;;;7.92;5.83;;;;;;;16.40;34.83;97707.34;1774876;79;21073;-55
2020/12/19 08:56:14;;;;;;;7.45;5.65;;;;;;;17.10;33.83;97707.60;1752318;82;20902;-55
2020/12/19 08:58:42;;;;;;;6.62;5.50;;;;;;;17.67;32.88;97711.37;1776511;80;21273;-55
2020/12/19 09:01:15;;;;;;;6.17;5.50;;;;;;;18.00;31.87;97709.09;1776543;80;20960;-55
2020/12/19 09:03:43;;;;;;;6.45;5.47;;;;;;;18.26;31.51;97714.45;1793713;78;21599;-55
2020/12/19 09:06:13;;;;;;;7.60;6.00;;;;;;;18.71;30.85;97708.86;1808646;78;21071;-55
2020/12/19 09:08:45;;;;;;;8.53;5.60;;;;;;;19.09;30.34;97699.47;1808524;79;21063;-55
2020/12/19 09:11:26;;;;;;;5.60;4.75;;;;;;;19.55;29.55;97700.64;1768455;78;21555;-54
2020/12/19 09:14:10;;;;;;;8.48;5.58;;;;;;;20.15;28.80;97703.16;1794408;79;21125;-55
2020/12/19 09:16:53;;;;;;;14.78;6.50;;;;;;;20.87;28.00;97695.61;1791837;79;21492;-54
2020/12/19 09:19:20;;;;;;;7.17;5.50;;;;;;;21.32;27.33;97696.60;1763564;78;21055;-56
2020/12/19 09:21:59;;;;;;;8.68;6.80;;;;;;;21.74;26.65;97697.34;1785093;79;21139;-55
2020/12/19 09:24:27;;;;;;;9.58;7.03;;;;;;;22.08;26.15;97690.03;1792468;80;21373;-56
2020/12/19 09:26:55;;;;;;;7.97;6.87;;;;;;;22.37;25.92;97679.20;1794399;78;21648;-55
2020/12/19 09:29:23;;;;;;;7.90;6.90;;;;;;;22.56;25.68;97683.91;1785841;78;21136;-55
2020/12/19 09:31:51;;;;;;;10.68;6.72;;;;;;;22.23;25.90;97671.30;1784158;78;21792;-54
2020/12/19 09:34:18;;;;;;;11.45;6.30;;;;;;;21.78;26.30;97674.95;1797438;78;21606;-54
2020/12/19 09:36:47;;;;;;;11.05;5.58;;;;;;;21.40;26.42;97668.97;1748238;79;21319;-55
2020/12/19 09:39:15;;;;;;;10.93;4.72;;;;;;;21.11;26.71;97666.52;1774763;79;21964;-54
2020/12/19 09:41:43;;;;;;;7.33;5.22;;;;;;;21.01;26.68;97663.11;1797811;79;21128;-54
2020/12/19 09:44:11;;;;;;;6.78;5.40;;;;;;;21.48;26.52;97658.52;1783424;78;21206;-55
2020/12/19 09:46:39;;;;;;;6.63;4.60;;;;;;;22.30;25.86;97659.63;1782456;79;21075;-55
2020/12/19 09:49:06;;;;;;;10.23;5.30;;;;;;;23.14;24.70;97646.14;1788108;79;21235;-55
2020/12/19 09:51:35;;;;;;;8.85;5.05;;;;;;;23.84;23.75;97652.02;1797380;78;21119;-55
2020/12/19 09:54:03;;;;;;;6.95;4.65;;;;;;;24.19;23.42;97647.34;1808072;79;21587;-55
2020/12/19 09:56:38;;;;;;;8.90;4.60;;;;;;;24.17;23.35;97646.69;1770963;79;21069;-55
2020/12/19 09:59:05;;;;;;;8.13;5.10;;;;;;;24.03;23.27;97654.33;1751642;82;21188;-56
2020/12/19 10:01:35;;;;;;;6.83;4.62;;;;;;;23.97;23.54;97646.22;1784269;79;21148;-55
2020/12/19 10:04:03;;;;;;;11.97;5.15;;;;;;;23.82;23.58;97638.94;1807939;79;20999;-56
2020/12/19 10:06:32;;;;;;;7.20;4.87;;;;;;;23.63;23.49;97633.44;1781239;79;21128;-55
2020/12/19 10:09:00;;;;;;;7.92;4.58;;;;;;;23.26;23.71;97629.45;1783934;79;21072;-55
2020/12/19 10:11:28;;;;;;;10.23;5.20;;;;;;;22.79;24.22;97631.27;1785443;79;21075;-55
2020/12/19 10:13:56;;;;;;;9.93;5.25;;;;;;;22.18;24.75;97629.14;1790646;78;21603;-55
2020/12/19 10:16:24;;;;;;;10.08;5.60;;;;;;;21.46;25.41;97631.88;1787890;79;21145;-55
2020/12/19 10:18:52;;;;;;;11.57;5.67;;;;;;;20.87;25.99;97618.27;1785510;79;21607;-56
2020/12/19 10:21:22;;;;;;;7.35;5.20;;;;;;;20.47;26.52;97617.60;1788684;79;21574;-55
2020/12/19 10:23:50;;;;;;;11.60;4.80;;;;;;;20.46;26.76;97611.16;1763550;79;21146;-55
2020/12/19 10:26:20;;;;;;;13.30;5.10;;;;;;;20.71;26.54;97614.47;1794449;79;22071;-55
2020/12/19 10:28:47;;;;;;;10.10;5.05;;;;;;;21.04;26.07;97612.19;1782712;78;21157;-56
2020/12/19 10:31:15;;;;;;;7.37;5.03;;;;;;;21.54;26.07;97615.31;1785863;79;21110;-55
2020/12/19 10:33:46;;;;;;;8.68;4.67;;;;;;;22.28;25.12;97603.92;1748904;81;21097;-58
2020/12/19 10:36:14;;;;;;;9.30;4.58;;;;;;;22.93;24.41;97606.85;1702909;81;21132;-55
2020/12/19 10:38:42;;;;;;;9.28;4.10;;;;;;;23.42;23.87;97601.31;1735757;81;21632;-56
2020/12/19 10:41:16;;;;;;;8.10;3.60;;;;;;;23.99;23.38;97601.31;1753478;81;21595;-56
2020/12/19 10:43:44;;;;;;;3.85;1.75;;;;;;;24.06;22.31;97601.46;1750457;81;21571;-55
2020/12/19 10:46:13;;;;;;;6.25;2.35;;;;;;;22.99;22.34;97605.36;1774233;79;21140;-55
2020/12/19 10:48:43;;;;;;;4.35;1.20;;;;;;;21.77;23.35;97606.41;1765942;79;21126;-55
2020/12/19 10:51:11;;;;;;;;;;;;;;;20.33;23.91;97599.63;1799409;79;21433;-56
2020/12/19 10:53:42;;;;;;;2.02;1.55;;;;;;;19.50;24.74;97591.82;1747596;81;21791;-56
2020/12/19 10:56:18;;;;;;;2.40;1.67;;;;;;;18.94;25.70;97595.14;1760460;81;21068;-56
2020/12/19 10:58:45;;;;;;;3.22;1.47;;;;;;;18.47;26.18;97598.33;1725736;82;21153;-57
2020/12/19 11:01:13;;;;;;;1.27;1.17;;;;;;;17.95;26.91;97596.23;1759632;81;21135;-57
2020/12/19 11:03:43;;;;;;;2.25;1.10;;;;;;;17.15;27.45;97597.56;1767190;81;21638;-57
2020/12/19 11:06:23;;;;;;;2.33;1.40;;;;;;;16.08;28.36;97597.20;1764136;79;21219;-56
2020/12/19 11:08:54;;;;;;;1.65;1.55;;;;;;;14.71;30.38;97595.05;1750995;81;21109;-56
2020/12/19 11:11:25;;;;;;;2.37;1.77;;;;;;;13.50;32.22;97597.19;1759155;81;21164;-55
2020/12/19 11:13:53;;;;;;;4.10;2.70;;;;;;;12.98;33.78;97593.59;1737692;81;21167;-57
2020/12/19 11:16:26;;;;;;;3.80;2.37;;;;;;;12.62;34.84;97591.56;1746462;81;23511;-57
2020/12/19 11:18:55;;;;;;;3.90;2.15;;;;;;;12.09;35.93;97590.05;1731069;80;21123;-56
2020/12/19 11:21:23;;;;;;;2.30;2.10;;;;;;;11.54;36.64;97583.73;1737519;81;26149;-56
2020/12/19 11:23:51;;;;;;;2.77;2.00;;;;;;;10.98;37.94;97591.25;1737726;81;21092;-56
2020/12/19 11:26:22;;;;;;;4.50;2.33;;;;;;;10.42;38.97;97585.20;1767410;81;21052;-56
2020/12/19 11:28:52;;;;;;;3.12;2.60;;;;;;;10.05;39.88;97579.36;1756556;80;21360;-56
2020/12/19 11:31:26;;;;;;;3.33;2.60;;;;;;;9.84;40.66;97582.61;1785406;79;21207;-56
2020/12/19 11:33:54;;;;;;;5.92;2.65;;;;;;;9.79;41.42;97580.72;1739083;81;21116;-55
2020/12/19 11:36:22;;;;;;;3.35;2.90;;;;;;;9.80;41.46;97581.55;1764132;81;28139;-56
2020/12/19 11:38:50;;;;;;;6.25;3.12;;;;;;;9.73;41.88;97585.74;1767514;81;21478;-55
2020/12/19 11:41:26;;;;;;;3.77;2.95;;;;;;;9.62;42.42;97589.37;1744698;80;22366;-55
2020/12/19 11:43:53;;;;;;;4.03;3.00;;;;;;;9.56;41.93;97576.72;1710853;82;21561;-56
2020/12/19 11:46:22;;;;;;;9.78;3.60;;;;;;;9.42;42.46;97577.86;1743558;80;21134;-56
2020/12/19 11:48:50;;;;;;;6.70;5.33;;;;;;;9.35;42.95;97580.75;1728497;81;21595;-56
2020/12/19 11:51:17;;;;;;;7.70;5.47;;;;;;;9.42;43.26;97585.63;1728816;82;21485;-55